TimePST,TemperatureF,Dew PointF,Humidity,Sea Level PressureIn,VisibilityMPH,Wind Direction,Wind SpeedMPH,Gust SpeedMPH,PrecipitationIn,Events,Conditions,WindDirDegrees,DateUTC
12:00 AM,41.0,39.2,93,29.95,12.0,WSW,4.6,-,N/A,,Overcast,240,2012-11-16 08:00:00
12:26 AM,41.0,-9999,N/A,-9999,12.0,West,3.5,-,N/A,,Overcast,270,2012-11-16 08:26:00
1:00 AM,41.0,39.2,93,29.94,12.0,West,4.6,-,N/A,,Overcast,280,2012-11-16 09:00:00
2:00 AM,41.0,39.2,93,29.94,12.0,West,3.5,-,N/A,,Overcast,270,2012-11-16 10:00:00
3:00 AM,41.0,39.2,93,29.93,10.0,Calm,Calm,-,N/A,,Mostly Cloudy,0,2012-11-16 11:00:00
4:00 AM,40,38,91,29.91,12,SW,2.3,,,,Mostly Cloudy,220,2012-11-16 12:00:00
4:00 AM,39.2,39.2,100,29.91,12.0,SW,2.3,-,N/A,,Mostly Cloudy,220,2012-11-16 12:00:00
5:00 AM,39.2,39.2,100,29.91,12.0,West,3.5,-,N/A,,Overcast,260,2012-11-16 13:00:00
6:00 AM,41.0,39.2,93,29.89,12.0,WSW,2.3,-,N/A,,Overcast,240,2012-11-16 14:00:00
7:00 AM,41.0,41.0,100,29.88,10.0,Calm,Calm,-,N/A,,Overcast,0,2012-11-16 15:00:00
7:31 AM,41.0,-9999,N/A,-9999,10.0,Calm,Calm,-,N/A,,Overcast,0,2012-11-16 15:31:00
8:00 AM,41.0,41.0,100,29.89,10.0,Calm,Calm,-,N/A,,Mostly Cloudy,0,2012-11-16 16:00:00
9:00 AM,42.8,41.0,93,29.89,15.0,Calm,Calm,-,N/A,,Mostly Cloudy,0,2012-11-16 17:00:00
10:00 AM,46,41,76,29.90,19,SE,4.6,,,,Mostly Cloudy,140,2012-11-16 18:00:00
10:00 AM,46.4,41.0,81,29.90,20.0,SE,4.6,-,N/A,,Mostly Cloudy,140,2012-11-16 18:00:00
11:00 AM,46.4,41.0,81,29.89,20.0,ESE,5.8,-,N/A,,Mostly Cloudy,120,2012-11-16 19:00:00
12:00 PM,46.4,41.0,81,29.87,20.0,SE,6.9,-,N/A,,Mostly Cloudy,130,2012-11-16 20:00:00
1:00 PM,46.4,41.0,81,29.86,20.0,SE,9.2,-,N/A,,Mostly Cloudy,140,2012-11-16 21:00:00
2:00 PM,48.2,41.0,76,29.84,20.0,SSE,5.8,-,N/A,,Mostly Cloudy,150,2012-11-16 22:00:00
3:00 PM,48.2,41.0,76,29.81,20.0,East,2.3,-,N/A,,Mostly Cloudy,90,2012-11-16 23:00:00
4:00 PM,46,41,75,29.81,28,NNE,3.5,,,,Overcast,20,2012-11-17 00:00:00
4:00 PM,46.4,41.0,81,29.81,30.0,NNE,3.5,-,N/A,,Overcast,20,2012-11-17 00:00:00
5:00 PM,46.4,41.0,81,29.78,30.0,NE,5.8,-,N/A,,Overcast,40,2012-11-17 01:00:00
6:00 PM,44.6,42.8,93,29.77,30.0,WSW,4.6,-,N/A,Rain,Light Rain,250,2012-11-17 02:00:00
6:38 PM,44.6,-9999,N/A,-9999,30.0,Calm,Calm,-,N/A,Rain,Light Rain,0,2012-11-17 02:38:00
7:00 PM,48.2,44.6,87,29.74,30.0,SE,9.2,-,N/A,Rain,Light Rain,130,2012-11-17 03:00:00
7:45 PM,48.2,-9999,N/A,-9999,30.0,SE,8.1,-,N/A,,Overcast,130,2012-11-17 03:45:00
8:00 PM,48.2,42.8,82,29.72,30.0,ESE,8.1,-,N/A,,Overcast,120,2012-11-17 04:00:00
8:22 PM,48.2,-9999,N/A,-9999,30.0,ESE,5.8,-,N/A,Rain,Light Rain,110,2012-11-17 04:22:00
9:00 PM,48.2,44.6,87,29.71,20.0,SE,2.3,-,N/A,Rain,Light Rain,140,2012-11-17 05:00:00
9:35 PM,48.2,-9999,N/A,-9999,20.0,Calm,Calm,-,N/A,Rain,Light Rain,0,2012-11-17 05:35:00
10:00 PM,48,46,88,29.69,15,SE,9.2,,,Rain,Light Rain,130,2012-11-17 06:00:00
10:00 PM,48.2,46.4,93,29.69,15.0,SE,10.4,-,N/A,Rain,Light Rain,140,2012-11-17 06:00:00
11:00 PM,48.2,46.4,93,29.65,15.0,SE,16.1,24.2,N/A,Rain,Light Rain,130,2012-11-17 07:00:00